sensor_id;sensor_type;location;lat;lon;timestamp;temperature;humidity
13052;DHT22;6592;47.484;9.726;2022-07-03T00:00:18;19.80;99.90
13052;DHT22;6592;47.484;9.726;2022-07-03T00:02:47;19.70;99.90
13052;DHT22;6592;47.484;9.726;2022-07-03T00:05:16;19.70;99.90
13052;DHT22;6592;47.484;9.726;2022-07-03T00:07:46;19.70;99.90
13052;DHT22;6592;47.484;9.726;2022-07-03T00:10:16;19.80;99.90
13052;DHT22;6592;47.484;9.726;2022-07-03T00:12:49;19.70;99.90
13052;DHT22;6592;47.484;9.726;2022-07-03T00:15:18;19.80;99.90
13052;DHT22;6592;47.484;9.726;2022-07-03T00:17:46;19.80;99.90
13052;DHT22;6592;47.484;9.726;2022-07-03T00:20:15;19.80;99.90
13052;DHT22;6592;47.484;9.726;2022-07-03T00:22:43;19.70;99.90
13052;DHT22;6592;47.484;9.726;2022-07-03T00:25:14;19.70;99.90
13052;DHT22;6592;47.484;9.726;2022-07-03T00:27:44;19.70;99.90
13052;DHT22;6592;47.484;9.726;2022-07-03T00:30:14;19.70;99.90
13052;DHT22;6592;47.484;9.726;2022-07-03T00:32:43;19.70;99.90
13052;DHT22;6592;47.484;9.726;2022-07-03T00:35:14;19.60;99.90
13052;DHT22;6592;47.484;9.726;2022-07-03T00:37:43;19.50;99.90
13052;DHT22;6592;47.484;9.726;2022-07-03T00:40:12;19.50;99.90
13052;DHT22;6592;47.484;9.726;2022-07-03T00:42:47;19.40;99.90
13052;DHT22;6592;47.484;9.726;2022-07-03T00:45:19;19.40;99.90
13052;DHT22;6592;47.484;9.726;2022-07-03T00:47:47;19.40;99.90
13052;DHT22;6592;47.484;9.726;2022-07-03T00:50:16;19.30;99.90
13052;DHT22;6592;47.484;9.726;2022-07-03T00:52:45;19.30;99.90
13052;DHT22;6592;47.484;9.726;2022-07-03T00:55:15;19.10;99.90
13052;DHT22;6592;47.484;9.726;2022-07-03T00:57:44;19.10;99.90
13052;DHT22;6592;47.484;9.726;2022-07-03T01:00:14;19.00;99.90
13052;DHT22;6592;47.484;9.726;2022-07-03T01:02:45;18.80;99.90
13052;DHT22;6592;47.484;9.726;2022-07-03T01:05:16;19.00;99.90
13052;DHT22;6592;47.484;9.726;2022-07-03T01:07:47;19.00;99.90
13052;DHT22;6592;47.484;9.726;2022-07-03T01:10:22;19.00;99.90
13052;DHT22;6592;47.484;9.726;2022-07-03T01:12:59;19.00;99.90
13052;DHT22;6592;47.484;9.726;2022-07-03T01:15:34;19.00;99.90
13052;DHT22;6592;47.484;9.726;2022-07-03T01:18:12;19.10;99.90
13052;DHT22;6592;47.484;9.726;2022-07-03T01:20:41;19.00;99.90
13052;DHT22;6592;47.484;9.726;2022-07-03T01:23:17;19.00;99.90
13052;DHT22;6592;47.484;9.726;2022-07-03T01:25:49;18.90;99.90
13052;DHT22;6592;47.484;9.726;2022-07-03T01:28:18;18.90;99.90
13052;DHT22;6592;47.484;9.726;2022-07-03T01:30:47;18.90;99.90
13052;DHT22;6592;47.484;9.726;2022-07-03T01:33:16;19.00;99.90
13052;DHT22;6592;47.484;9.726;2022-07-03T01:35:47;19.00;99.90
13052;DHT22;6592;47.484;9.726;2022-07-03T01:38:20;19.10;99.90
13052;DHT22;6592;47.484;9.726;2022-07-03T01:40:50;19.10;99.90
13052;DHT22;6592;47.484;9.726;2022-07-03T01:43:20;19.20;99.90
13052;DHT22;6592;47.484;9.726;2022-07-03T01:45:50;19.20;99.90
13052;DHT22;6592;47.484;9.726;2022-07-03T01:48:19;19.10;99.90
13052;DHT22;6592;47.484;9.726;2022-07-03T01:50:47;19.10;99.90
13052;DHT22;6592;47.484;9.726;2022-07-03T01:53:17;19.10;99.90
13052;DHT22;6592;47.484;9.726;2022-07-03T01:55:46;19.00;99.90
13052;DHT22;6592;47.484;9.726;2022-07-03T01:58:16;19.00;99.90
13052;DHT22;6592;47.484;9.726;2022-07-03T02:00:45;18.90;99.90
13052;DHT22;6592;47.484;9.726;2022-07-03T02:03:18;18.80;99.90
13052;DHT22;6592;47.484;9.726;2022-07-03T02:05:49;18.80;99.90
13052;DHT22;6592;47.484;9.726;2022-07-03T02:08:27;18.70;99.90
13052;DHT22;6592;47.484;9.726;2022-07-03T02:11:02;18.60;99.90
13052;DHT22;6592;47.484;9.726;2022-07-03T02:13:44;18.60;99.90
13052;DHT22;6592;47.484;9.726;2022-07-03T02:16:20;18.60;99.90
13052;DHT22;6592;47.484;9.726;2022-07-03T02:18:50;18.50;99.90
13052;DHT22;6592;47.484;9.726;2022-07-03T02:21:22;18.50;99.90
13052;DHT22;6592;47.484;9.726;2022-07-03T02:23:53;18.50;99.90
13052;DHT22;6592;47.484;9.726;2022-07-03T02:26:24;18.40;99.90
13052;DHT22;6592;47.484;9.726;2022-07-03T02:28:58;18.30;99.90
13052;DHT22;6592;47.484;9.726;2022-07-03T02:31:26;18.30;99.90
13052;DHT22;6592;47.484;9.726;2022-07-03T02:33:56;18.30;99.90
13052;DHT22;6592;47.484;9.726;2022-07-03T02:36:27;18.30;99.90
13052;DHT22;6592;47.484;9.726;2022-07-03T02:38:56;18.30;99.90
13052;DHT22;6592;47.484;9.726;2022-07-03T02:41:34;18.20;99.90
13052;DHT22;6592;47.484;9.726;2022-07-03T02:44:23;18.20;99.90
13052;DHT22;6592;47.484;9.726;2022-07-03T02:46:57;18.10;99.90
13052;DHT22;6592;47.484;9.726;2022-07-03T02:49:33;18.20;99.90
13052;DHT22;6592;47.484;9.726;2022-07-03T02:52:10;18.10;99.90
13052;DHT22;6592;47.484;9.726;2022-07-03T02:54:42;18.10;99.90
13052;DHT22;6592;47.484;9.726;2022-07-03T02:57:12;18.10;99.90
13052;DHT22;6592;47.484;9.726;2022-07-03T03:02:36;18.10;99.90
13052;DHT22;6592;47.484;9.726;2022-07-03T03:05:08;18.00;99.90
13052;DHT22;6592;47.484;9.726;2022-07-03T03:07:40;18.00;99.90
13052;DHT22;6592;47.484;9.726;2022-07-03T03:10:10;18.00;99.90
13052;DHT22;6592;47.484;9.726;2022-07-03T03:12:52;18.00;99.90
13052;DHT22;6592;47.484;9.726;2022-07-03T03:15:24;18.00;99.90
13052;DHT22;6592;47.484;9.726;2022-07-03T03:18:01;18.00;99.90
13052;DHT22;6592;47.484;9.726;2022-07-03T03:20:30;18.00;99.90
13052;DHT22;6592;47.484;9.726;2022-07-03T03:25:44;17.80;99.90
13052;DHT22;6592;47.484;9.726;2022-07-03T03:28:13;17.80;99.90
13052;DHT22;6592;47.484;9.726;2022-07-03T03:30:41;17.80;99.90
13052;DHT22;6592;47.484;9.726;2022-07-03T03:33:12;17.80;99.90
13052;DHT22;6592;47.484;9.726;2022-07-03T03:35:45;17.80;99.90
13052;DHT22;6592;47.484;9.726;2022-07-03T03:38:13;17.90;99.90
13052;DHT22;6592;47.484;9.726;2022-07-03T03:40:41;17.90;99.90
13052;DHT22;6592;47.484;9.726;2022-07-03T03:43:11;18.00;99.90
13052;DHT22;6592;47.484;9.726;2022-07-03T03:45:39;18.00;99.90
13052;DHT22;6592;47.484;9.726;2022-07-03T03:48:08;18.10;99.90
13052;DHT22;6592;47.484;9.726;2022-07-03T03:50:38;18.10;99.90
13052;DHT22;6592;47.484;9.726;2022-07-03T03:53:09;18.10;99.90
13052;DHT22;6592;47.484;9.726;2022-07-03T03:55:51;18.20;99.90
13052;DHT22;6592;47.484;9.726;2022-07-03T03:58:22;18.10;99.90
13052;DHT22;6592;47.484;9.726;2022-07-03T04:00:50;18.10;99.90
13052;DHT22;6592;47.484;9.726;2022-07-03T04:03:20;18.10;99.90
13052;DHT22;6592;47.484;9.726;2022-07-03T04:05:49;18.10;99.90
13052;DHT22;6592;47.484;9.726;2022-07-03T04:08:18;18.10;99.90
13052;DHT22;6592;47.484;9.726;2022-07-03T04:10:46;18.10;99.90
13052;DHT22;6592;47.484;9.726;2022-07-03T04:13:15;18.00;99.90
13052;DHT22;6592;47.484;9.726;2022-07-03T04:15:45;18.00;99.90
13052;DHT22;6592;47.484;9.726;2022-07-03T04:18:14;18.00;99.90
13052;DHT22;6592;47.484;9.726;2022-07-03T04:20:42;18.00;99.90
13052;DHT22;6592;47.484;9.726;2022-07-03T04:23:13;18.00;99.90
13052;DHT22;6592;47.484;9.726;2022-07-03T04:25:44;18.20;99.90
13052;DHT22;6592;47.484;9.726;2022-07-03T04:28:15;17.90;99.90
13052;DHT22;6592;47.484;9.726;2022-07-03T04:30:46;17.90;99.90
13052;DHT22;6592;47.484;9.726;2022-07-03T04:33:15;17.80;99.90
13052;DHT22;6592;47.484;9.726;2022-07-03T04:35:43;17.70;99.90
13052;DHT22;6592;47.484;9.726;2022-07-03T04:38:14;17.90;99.90
13052;DHT22;6592;47.484;9.726;2022-07-03T04:40:42;17.90;99.90
13052;DHT22;6592;47.484;9.726;2022-07-03T04:43:10;18.00;99.90
13052;DHT22;6592;47.484;9.726;2022-07-03T04:45:39;18.10;99.90
13052;DHT22;6592;47.484;9.726;2022-07-03T04:48:10;18.20;99.90
13052;DHT22;6592;47.484;9.726;2022-07-03T04:50:41;18.40;99.90
13052;DHT22;6592;47.484;9.726;2022-07-03T04:53:13;18.60;99.90
13052;DHT22;6592;47.484;9.726;2022-07-03T04:55:41;18.60;99.90
13052;DHT22;6592;47.484;9.726;2022-07-03T04:58:10;18.90;99.90
13052;DHT22;6592;47.484;9.726;2022-07-03T05:00:38;19.00;99.90
13052;DHT22;6592;47.484;9.726;2022-07-03T05:03:10;19.10;99.90
13052;DHT22;6592;47.484;9.726;2022-07-03T05:05:38;19.30;99.90
13052;DHT22;6592;47.484;9.726;2022-07-03T05:08:06;19.40;99.90
13052;DHT22;6592;47.484;9.726;2022-07-03T05:10:35;19.50;99.90
13052;DHT22;6592;47.484;9.726;2022-07-03T05:13:03;19.60;99.90
13052;DHT22;6592;47.484;9.726;2022-07-03T05:15:31;19.80;99.90
13052;DHT22;6592;47.484;9.726;2022-07-03T05:17:59;20.00;99.90
13052;DHT22;6592;47.484;9.726;2022-07-03T05:20:27;20.30;99.90
13052;DHT22;6592;47.484;9.726;2022-07-03T05:22:56;20.40;99.90
13052;DHT22;6592;47.484;9.726;2022-07-03T05:25:25;20.60;99.90
13052;DHT22;6592;47.484;9.726;2022-07-03T05:27:55;20.70;99.90
13052;DHT22;6592;47.484;9.726;2022-07-03T05:30:23;20.80;99.90
13052;DHT22;6592;47.484;9.726;2022-07-03T05:32:52;20.80;99.90
13052;DHT22;6592;47.484;9.726;2022-07-03T05:35:20;20.80;99.90
13052;DHT22;6592;47.484;9.726;2022-07-03T05:37:48;20.80;99.90
13052;DHT22;6592;47.484;9.726;2022-07-03T05:40:16;20.80;99.90
13052;DHT22;6592;47.484;9.726;2022-07-03T05:42:44;20.80;99.90
13052;DHT22;6592;47.484;9.726;2022-07-03T05:45:14;20.90;99.90
13052;DHT22;6592;47.484;9.726;2022-07-03T05:47:42;21.00;99.90
13052;DHT22;6592;47.484;9.726;2022-07-03T05:50:10;21.10;99.90
13052;DHT22;6592;47.484;9.726;2022-07-03T05:52:38;21.20;99.90
13052;DHT22;6592;47.484;9.726;2022-07-03T05:55:06;21.50;99.90
13052;DHT22;6592;47.484;9.726;2022-07-03T05:57:35;21.90;99.90
13052;DHT22;6592;47.484;9.726;2022-07-03T06:00:03;22.50;99.90
13052;DHT22;6592;47.484;9.726;2022-07-03T06:02:33;23.10;99.90
13052;DHT22;6592;47.484;9.726;2022-07-03T06:05:01;23.40;99.90
13052;DHT22;6592;47.484;9.726;2022-07-03T06:07:29;23.40;99.90
13052;DHT22;6592;47.484;9.726;2022-07-03T06:09:57;23.90;99.90
13052;DHT22;6592;47.484;9.726;2022-07-03T06:12:25;24.50;99.90
13052;DHT22;6592;47.484;9.726;2022-07-03T06:14:53;25.20;99.90
13052;DHT22;6592;47.484;9.726;2022-07-03T06:17:27;25.60;99.90
13052;DHT22;6592;47.484;9.726;2022-07-03T06:19:57;26.40;99.90
13052;DHT22;6592;47.484;9.726;2022-07-03T06:22:25;27.00;99.90
13052;DHT22;6592;47.484;9.726;2022-07-03T06:24:53;27.20;99.90
13052;DHT22;6592;47.484;9.726;2022-07-03T06:27:21;26.80;99.90
13052;DHT22;6592;47.484;9.726;2022-07-03T06:29:49;26.50;99.90
13052;DHT22;6592;47.484;9.726;2022-07-03T06:32:18;26.30;99.90
13052;DHT22;6592;47.484;9.726;2022-07-03T06:34:46;26.40;99.90
13052;DHT22;6592;47.484;9.726;2022-07-03T06:37:16;26.30;99.90
13052;DHT22;6592;47.484;9.726;2022-07-03T06:39:44;26.20;99.90
13052;DHT22;6592;47.484;9.726;2022-07-03T06:42:12;26.60;99.90
13052;DHT22;6592;47.484;9.726;2022-07-03T06:44:40;26.70;99.90
13052;DHT22;6592;47.484;9.726;2022-07-03T06:47:08;26.70;99.90
13052;DHT22;6592;47.484;9.726;2022-07-03T06:49:36;26.90;99.90
13052;DHT22;6592;47.484;9.726;2022-07-03T06:52:04;26.70;99.90
13052;DHT22;6592;47.484;9.726;2022-07-03T06:54:34;26.80;99.90
13052;DHT22;6592;47.484;9.726;2022-07-03T06:57:04;26.80;99.90
13052;DHT22;6592;47.484;9.726;2022-07-03T06:59:32;26.90;99.90
13052;DHT22;6592;47.484;9.726;2022-07-03T07:02:00;27.30;99.90
13052;DHT22;6592;47.484;9.726;2022-07-03T07:04:29;27.70;99.90
13052;DHT22;6592;47.484;9.726;2022-07-03T07:06:57;27.70;99.90
13052;DHT22;6592;47.484;9.726;2022-07-03T07:09:25;28.10;99.90
13052;DHT22;6592;47.484;9.726;2022-07-03T07:11:54;28.10;99.90
13052;DHT22;6592;47.484;9.726;2022-07-03T07:14:22;28.10;99.90
13052;DHT22;6592;47.484;9.726;2022-07-03T07:16:50;28.40;99.90
13052;DHT22;6592;47.484;9.726;2022-07-03T07:19:18;29.10;99.90
13052;DHT22;6592;47.484;9.726;2022-07-03T07:21:46;29.30;99.90
13052;DHT22;6592;47.484;9.726;2022-07-03T07:24:14;29.50;99.90
13052;DHT22;6592;47.484;9.726;2022-07-03T07:26:42;29.30;99.90
13052;DHT22;6592;47.484;9.726;2022-07-03T07:29:12;29.30;99.90
13052;DHT22;6592;47.484;9.726;2022-07-03T07:31:40;29.90;99.90
13052;DHT22;6592;47.484;9.726;2022-07-03T07:34:08;30.10;99.90
13052;DHT22;6592;47.484;9.726;2022-07-03T07:36:36;29.90;99.90
13052;DHT22;6592;47.484;9.726;2022-07-03T07:39:04;29.90;99.90
13052;DHT22;6592;47.484;9.726;2022-07-03T07:41:32;30.20;99.90
13052;DHT22;6592;47.484;9.726;2022-07-03T07:44:00;30.70;99.90
13052;DHT22;6592;47.484;9.726;2022-07-03T07:46:30;31.20;99.90
13052;DHT22;6592;47.484;9.726;2022-07-03T07:48:58;31.50;99.90
13052;DHT22;6592;47.484;9.726;2022-07-03T07:51:26;32.20;99.90
13052;DHT22;6592;47.484;9.726;2022-07-03T07:53:54;32.00;99.50
13052;DHT22;6592;47.484;9.726;2022-07-03T07:56:24;31.80;98.90
13052;DHT22;6592;47.484;9.726;2022-07-03T07:58:52;32.00;99.40
13052;DHT22;6592;47.484;9.726;2022-07-03T08:01:20;32.30;99.90
13052;DHT22;6592;47.484;9.726;2022-07-03T08:04:06;32.60;98.20
13052;DHT22;6592;47.484;9.726;2022-07-03T08:06:52;32.70;96.90
13052;DHT22;6592;47.484;9.726;2022-07-03T08:09:20;33.20;96.10
13052;DHT22;6592;47.484;9.726;2022-07-03T08:11:48;32.80;96.30
13052;DHT22;6592;47.484;9.726;2022-07-03T08:14:16;33.30;95.80
13052;DHT22;6592;47.484;9.726;2022-07-03T08:16:44;33.70;94.30
13052;DHT22;6592;47.484;9.726;2022-07-03T08:19:14;34.00;93.60
13052;DHT22;6592;47.484;9.726;2022-07-03T08:21:43;34.30;93.50
13052;DHT22;6592;47.484;9.726;2022-07-03T08:24:11;34.50;93.20
13052;DHT22;6592;47.484;9.726;2022-07-03T08:26:39;34.90;93.40
13052;DHT22;6592;47.484;9.726;2022-07-03T08:29:07;35.50;92.30
13052;DHT22;6592;47.484;9.726;2022-07-03T08:31:35;36.10;91.50
13052;DHT22;6592;47.484;9.726;2022-07-03T08:34:04;35.70;90.80
13052;DHT22;6592;47.484;9.726;2022-07-03T08:36:33;35.60;88.60
13052;DHT22;6592;47.484;9.726;2022-07-03T08:39:01;36.00;87.40
13052;DHT22;6592;47.484;9.726;2022-07-03T08:41:29;36.30;84.10
13052;DHT22;6592;47.484;9.726;2022-07-03T08:43:59;36.10;82.20
13052;DHT22;6592;47.484;9.726;2022-07-03T08:46:27;36.10;83.30
13052;DHT22;6592;47.484;9.726;2022-07-03T08:48:58;36.60;81.50
13052;DHT22;6592;47.484;9.726;2022-07-03T08:51:26;36.40;78.10
13052;DHT22;6592;47.484;9.726;2022-07-03T08:53:56;35.80;80.00
13052;DHT22;6592;47.484;9.726;2022-07-03T08:56:26;35.20;82.80
13052;DHT22;6592;47.484;9.726;2022-07-03T08:58:55;35.70;79.80
13052;DHT22;6592;47.484;9.726;2022-07-03T09:01:25;36.00;79.90
13052;DHT22;6592;47.484;9.726;2022-07-03T09:03:53;36.00;82.60
13052;DHT22;6592;47.484;9.726;2022-07-03T09:06:21;36.70;79.20
13052;DHT22;6592;47.484;9.726;2022-07-03T09:08:49;37.70;77.50
13052;DHT22;6592;47.484;9.726;2022-07-03T09:11:19;38.50;75.30
13052;DHT22;6592;47.484;9.726;2022-07-03T09:13:47;38.80;70.00
13052;DHT22;6592;47.484;9.726;2022-07-03T09:16:20;39.00;68.20
13052;DHT22;6592;47.484;9.726;2022-07-03T09:18:48;39.50;66.50
13052;DHT22;6592;47.484;9.726;2022-07-03T09:21:17;39.30;65.90
13052;DHT22;6592;47.484;9.726;2022-07-03T09:23:45;39.30;67.90
13052;DHT22;6592;47.484;9.726;2022-07-03T09:26:14;39.80;70.00
13052;DHT22;6592;47.484;9.726;2022-07-03T09:28:45;40.10;72.80
13052;DHT22;6592;47.484;9.726;2022-07-03T09:31:15;40.40;71.60
13052;DHT22;6592;47.484;9.726;2022-07-03T09:33:50;40.60;70.50
13052;DHT22;6592;47.484;9.726;2022-07-03T09:36:20;41.00;72.40
13052;DHT22;6592;47.484;9.726;2022-07-03T09:38:48;41.10;70.20
13052;DHT22;6592;47.484;9.726;2022-07-03T09:41:16;41.30;66.80
13052;DHT22;6592;47.484;9.726;2022-07-03T09:43:46;41.40;65.30
13052;DHT22;6592;47.484;9.726;2022-07-03T09:46:14;41.30;65.10
13052;DHT22;6592;47.484;9.726;2022-07-03T09:48:42;41.60;64.80
13052;DHT22;6592;47.484;9.726;2022-07-03T09:51:11;41.80;61.80
13052;DHT22;6592;47.484;9.726;2022-07-03T09:53:46;41.80;59.60
13052;DHT22;6592;47.484;9.726;2022-07-03T09:56:22;41.50;58.10
13052;DHT22;6592;47.484;9.726;2022-07-03T09:59:02;41.60;57.70
13052;DHT22;6592;47.484;9.726;2022-07-03T10:01:31;41.70;56.70
13052;DHT22;6592;47.484;9.726;2022-07-03T10:06:52;41.50;53.50
13052;DHT22;6592;47.484;9.726;2022-07-03T10:09:22;41.80;55.60
13052;DHT22;6592;47.484;9.726;2022-07-03T10:11:50;41.80;53.80
13052;DHT22;6592;47.484;9.726;2022-07-03T10:14:21;41.90;53.40
13052;DHT22;6592;47.484;9.726;2022-07-03T10:16:49;41.80;52.60
13052;DHT22;6592;47.484;9.726;2022-07-03T10:19:18;41.70;52.10
13052;DHT22;6592;47.484;9.726;2022-07-03T10:21:50;41.60;52.10
13052;DHT22;6592;47.484;9.726;2022-07-03T10:24:23;41.50;52.30
13052;DHT22;6592;47.484;9.726;2022-07-03T10:26:52;41.40;54.20
13052;DHT22;6592;47.484;9.726;2022-07-03T10:29:23;41.50;53.50
13052;DHT22;6592;47.484;9.726;2022-07-03T10:31:55;41.40;51.70
13052;DHT22;6592;47.484;9.726;2022-07-03T10:34:25;41.50;51.30
13052;DHT22;6592;47.484;9.726;2022-07-03T10:36:55;41.50;52.00
13052;DHT22;6592;47.484;9.726;2022-07-03T10:39:30;41.50;49.80
13052;DHT22;6592;47.484;9.726;2022-07-03T10:42:01;41.50;48.80
13052;DHT22;6592;47.484;9.726;2022-07-03T10:44:52;41.60;48.40
13052;DHT22;6592;47.484;9.726;2022-07-03T10:47:38;41.30;48.40
13052;DHT22;6592;47.484;9.726;2022-07-03T10:50:07;41.10;47.20
13052;DHT22;6592;47.484;9.726;2022-07-03T10:52:36;41.30;47.80
13052;DHT22;6592;47.484;9.726;2022-07-03T10:55:05;41.50;48.50
13052;DHT22;6592;47.484;9.726;2022-07-03T10:57:34;41.50;48.30
13052;DHT22;6592;47.484;9.726;2022-07-03T11:00:16;41.80;49.90
13052;DHT22;6592;47.484;9.726;2022-07-03T11:02:46;41.90;47.20
13052;DHT22;6592;47.484;9.726;2022-07-03T11:05:15;41.80;45.60
13052;DHT22;6592;47.484;9.726;2022-07-03T11:08:06;41.90;46.00
13052;DHT22;6592;47.484;9.726;2022-07-03T11:10:34;41.40;45.40
13052;DHT22;6592;47.484;9.726;2022-07-03T11:13:11;41.40;45.50
13052;DHT22;6592;47.484;9.726;2022-07-03T11:15:44;41.30;45.30
13052;DHT22;6592;47.484;9.726;2022-07-03T11:18:17;41.40;44.90
13052;DHT22;6592;47.484;9.726;2022-07-03T11:20:56;40.50;43.60
13052;DHT22;6592;47.484;9.726;2022-07-03T11:23:29;39.40;47.50
13052;DHT22;6592;47.484;9.726;2022-07-03T11:25:57;39.40;48.20
13052;DHT22;6592;47.484;9.726;2022-07-03T11:31:17;38.70;49.30
13052;DHT22;6592;47.484;9.726;2022-07-03T11:33:46;38.80;49.90
13052;DHT22;6592;47.484;9.726;2022-07-03T11:36:24;39.00;49.10
13052;DHT22;6592;47.484;9.726;2022-07-03T11:39:04;38.80;49.90
13052;DHT22;6592;47.484;9.726;2022-07-03T11:41:43;38.70;47.10
13052;DHT22;6592;47.484;9.726;2022-07-03T11:44:17;39.00;48.00
13052;DHT22;6592;47.484;9.726;2022-07-03T11:46:48;39.20;49.30
13052;DHT22;6592;47.484;9.726;2022-07-03T11:49:17;39.20;49.00
13052;DHT22;6592;47.484;9.726;2022-07-03T11:51:58;39.30;49.90
13052;DHT22;6592;47.484;9.726;2022-07-03T11:54:29;39.30;49.90
13052;DHT22;6592;47.484;9.726;2022-07-03T11:56:57;39.50;51.00
13052;DHT22;6592;47.484;9.726;2022-07-03T11:59:26;39.30;48.40
13052;DHT22;6592;47.484;9.726;2022-07-03T12:02:07;39.40;49.40
13052;DHT22;6592;47.484;9.726;2022-07-03T12:04:35;39.20;50.10
13052;DHT22;6592;47.484;9.726;2022-07-03T12:07:03;39.10;49.90
13052;DHT22;6592;47.484;9.726;2022-07-03T12:09:32;39.00;52.60
13052;DHT22;6592;47.484;9.726;2022-07-03T12:12:01;38.90;51.00
13052;DHT22;6592;47.484;9.726;2022-07-03T12:17:18;38.40;53.20
13052;DHT22;6592;47.484;9.726;2022-07-03T12:19:46;38.10;52.10
13052;DHT22;6592;47.484;9.726;2022-07-03T12:22:24;38.10;55.20
13052;DHT22;6592;47.484;9.726;2022-07-03T12:25:02;37.70;52.00
13052;DHT22;6592;47.484;9.726;2022-07-03T12:27:31;37.50;54.40
13052;DHT22;6592;47.484;9.726;2022-07-03T12:30:00;37.20;56.50
13052;DHT22;6592;47.484;9.726;2022-07-03T12:32:30;36.80;55.20
13052;DHT22;6592;47.484;9.726;2022-07-03T12:34:58;36.50;55.10
13052;DHT22;6592;47.484;9.726;2022-07-03T12:37:32;36.10;57.10
13052;DHT22;6592;47.484;9.726;2022-07-03T12:40:01;35.70;56.20
13052;DHT22;6592;47.484;9.726;2022-07-03T12:42:30;35.40;57.40
13052;DHT22;6592;47.484;9.726;2022-07-03T12:44:58;35.10;55.90
13052;DHT22;6592;47.484;9.726;2022-07-03T12:47:27;34.80;56.50
13052;DHT22;6592;47.484;9.726;2022-07-03T12:49:58;34.60;58.50
13052;DHT22;6592;47.484;9.726;2022-07-03T12:52:28;34.40;59.80
13052;DHT22;6592;47.484;9.726;2022-07-03T12:54:56;34.20;60.60
13052;DHT22;6592;47.484;9.726;2022-07-03T12:57:24;34.10;60.30
13052;DHT22;6592;47.484;9.726;2022-07-03T13:00:11;34.00;59.10
13052;DHT22;6592;47.484;9.726;2022-07-03T13:02:43;34.00;61.00
13052;DHT22;6592;47.484;9.726;2022-07-03T13:05:17;33.90;59.80
13052;DHT22;6592;47.484;9.726;2022-07-03T13:07:46;33.90;61.40
13052;DHT22;6592;47.484;9.726;2022-07-03T13:10:14;33.70;59.10
13052;DHT22;6592;47.484;9.726;2022-07-03T13:12:47;33.70;57.20
13052;DHT22;6592;47.484;9.726;2022-07-03T13:15:17;33.50;56.30
13052;DHT22;6592;47.484;9.726;2022-07-03T13:17:50;33.40;57.50
13052;DHT22;6592;47.484;9.726;2022-07-03T13:20:21;33.20;58.70
13052;DHT22;6592;47.484;9.726;2022-07-03T13:22:49;33.20;58.00
13052;DHT22;6592;47.484;9.726;2022-07-03T13:25:18;33.10;57.40
13052;DHT22;6592;47.484;9.726;2022-07-03T13:27:47;33.00;56.80
13052;DHT22;6592;47.484;9.726;2022-07-03T13:30:16;32.90;55.90
13052;DHT22;6592;47.484;9.726;2022-07-03T13:32:45;32.80;54.50
13052;DHT22;6592;47.484;9.726;2022-07-03T13:35:14;32.70;54.50
13052;DHT22;6592;47.484;9.726;2022-07-03T13:37:44;32.80;57.00
13052;DHT22;6592;47.484;9.726;2022-07-03T13:40:12;32.80;56.90
13052;DHT22;6592;47.484;9.726;2022-07-03T13:42:47;32.80;53.20
13052;DHT22;6592;47.484;9.726;2022-07-03T13:45:15;32.80;54.80
13052;DHT22;6592;47.484;9.726;2022-07-03T13:47:43;32.90;56.50
13052;DHT22;6592;47.484;9.726;2022-07-03T13:50:11;33.00;56.90
13052;DHT22;6592;47.484;9.726;2022-07-03T13:52:40;32.90;55.40
13052;DHT22;6592;47.484;9.726;2022-07-03T13:55:14;33.00;55.00
13052;DHT22;6592;47.484;9.726;2022-07-03T13:57:43;32.90;55.10
13052;DHT22;6592;47.484;9.726;2022-07-03T14:00:11;32.80;54.40
13052;DHT22;6592;47.484;9.726;2022-07-03T14:02:40;32.70;54.00
13052;DHT22;6592;47.484;9.726;2022-07-03T14:05:08;32.70;54.40
13052;DHT22;6592;47.484;9.726;2022-07-03T14:07:36;32.70;57.00
13052;DHT22;6592;47.484;9.726;2022-07-03T14:10:05;32.70;57.70
13052;DHT22;6592;47.484;9.726;2022-07-03T14:12:34;32.70;54.90
13052;DHT22;6592;47.484;9.726;2022-07-03T14:15:03;32.60;54.10
13052;DHT22;6592;47.484;9.726;2022-07-03T14:17:31;32.60;53.90
13052;DHT22;6592;47.484;9.726;2022-07-03T14:20:00;32.60;55.70
13052;DHT22;6592;47.484;9.726;2022-07-03T14:22:28;32.60;54.00
13052;DHT22;6592;47.484;9.726;2022-07-03T14:24:56;32.60;54.70
13052;DHT22;6592;47.484;9.726;2022-07-03T14:27:25;32.60;56.40
13052;DHT22;6592;47.484;9.726;2022-07-03T14:30:12;32.60;54.90
13052;DHT22;6592;47.484;9.726;2022-07-03T14:32:58;32.70;55.20
13052;DHT22;6592;47.484;9.726;2022-07-03T14:35:27;32.70;54.40
13052;DHT22;6592;47.484;9.726;2022-07-03T14:37:56;32.70;56.00
13052;DHT22;6592;47.484;9.726;2022-07-03T14:40:24;32.90;56.80
13052;DHT22;6592;47.484;9.726;2022-07-03T14:42:52;32.90;55.20
13052;DHT22;6592;47.484;9.726;2022-07-03T14:45:22;33.10;56.10
13052;DHT22;6592;47.484;9.726;2022-07-03T14:47:50;32.90;56.10
13052;DHT22;6592;47.484;9.726;2022-07-03T14:50:19;32.90;58.50
13052;DHT22;6592;47.484;9.726;2022-07-03T14:52:48;32.80;60.00
13052;DHT22;6592;47.484;9.726;2022-07-03T14:55:16;32.80;59.10
13052;DHT22;6592;47.484;9.726;2022-07-03T14:57:47;32.90;59.90
13052;DHT22;6592;47.484;9.726;2022-07-03T15:00:17;33.10;61.20
13052;DHT22;6592;47.484;9.726;2022-07-03T15:02:51;33.10;60.90
13052;DHT22;6592;47.484;9.726;2022-07-03T15:05:21;33.10;61.70
13052;DHT22;6592;47.484;9.726;2022-07-03T15:07:56;32.90;59.60
13052;DHT22;6592;47.484;9.726;2022-07-03T15:10:26;32.80;59.40
13052;DHT22;6592;47.484;9.726;2022-07-03T15:12:55;32.90;59.40
13052;DHT22;6592;47.484;9.726;2022-07-03T15:15:24;32.90;61.40
13052;DHT22;6592;47.484;9.726;2022-07-03T15:17:56;32.90;61.10
13052;DHT22;6592;47.484;9.726;2022-07-03T15:20:26;32.90;61.20
13052;DHT22;6592;47.484;9.726;2022-07-03T15:22:57;32.90;60.90
13052;DHT22;6592;47.484;9.726;2022-07-03T15:25:28;32.90;61.70
13052;DHT22;6592;47.484;9.726;2022-07-03T15:27:58;32.90;61.30
13052;DHT22;6592;47.484;9.726;2022-07-03T15:30:27;32.80;62.30
13052;DHT22;6592;47.484;9.726;2022-07-03T15:32:57;32.80;61.10
13052;DHT22;6592;47.484;9.726;2022-07-03T15:35:27;32.70;63.50
13052;DHT22;6592;47.484;9.726;2022-07-03T15:38:03;32.70;61.80
13052;DHT22;6592;47.484;9.726;2022-07-03T15:40:34;32.70;61.30
13052;DHT22;6592;47.484;9.726;2022-07-03T15:43:09;32.80;63.90
13052;DHT22;6592;47.484;9.726;2022-07-03T15:45:42;32.70;63.40
13052;DHT22;6592;47.484;9.726;2022-07-03T15:48:16;32.90;62.20
13052;DHT22;6592;47.484;9.726;2022-07-03T15:50:48;32.80;62.20
13052;DHT22;6592;47.484;9.726;2022-07-03T15:53:19;32.60;64.40
13052;DHT22;6592;47.484;9.726;2022-07-03T15:55:49;32.90;63.10
13052;DHT22;6592;47.484;9.726;2022-07-03T15:58:23;32.90;63.70
13052;DHT22;6592;47.484;9.726;2022-07-03T16:00:54;32.90;62.20
13052;DHT22;6592;47.484;9.726;2022-07-03T16:03:44;32.90;61.60
13052;DHT22;6592;47.484;9.726;2022-07-03T16:06:19;32.90;60.70
13052;DHT22;6592;47.484;9.726;2022-07-03T16:08:47;32.90;62.90
13052;DHT22;6592;47.484;9.726;2022-07-03T16:11:16;33.00;62.90
13052;DHT22;6592;47.484;9.726;2022-07-03T16:13:45;32.90;64.00
13052;DHT22;6592;47.484;9.726;2022-07-03T16:16:14;32.90;63.40
13052;DHT22;6592;47.484;9.726;2022-07-03T16:18:45;32.80;63.20